createdAt,value
2023-02-07T00:02:19.457Z,16.80
2023-02-07T00:04:50.373Z,11.10
2023-02-07T00:07:21.218Z,15.50
2023-02-07T00:09:52.119Z,14.70
2023-02-07T00:12:22.796Z,17.20
2023-02-07T00:14:53.452Z,14.10
2023-02-07T00:17:24.319Z,13.30
2023-02-07T00:19:54.964Z,17.10
2023-02-07T00:22:25.652Z,12.40
2023-02-07T00:24:56.722Z,16.50
2023-02-07T00:27:27.478Z,14.30
2023-02-07T00:29:58.542Z,17.50
2023-02-07T00:32:34.364Z,16.50
2023-02-07T00:35:05.742Z,15.80
2023-02-07T00:37:36.944Z,13.80
2023-02-07T00:40:09.266Z,10.90
2023-02-07T00:42:39.933Z,18.90
2023-02-07T00:45:12.336Z,16.60
2023-02-07T00:47:43.112Z,13.90
2023-02-07T00:50:14.069Z,9.80
2023-02-07T00:52:44.844Z,14.80
2023-02-07T00:55:16.498Z,15.20
2023-02-07T00:57:47.155Z,18.30
2023-02-07T01:00:19.724Z,7.90
2023-02-07T01:02:51.021Z,13.10
2023-02-07T01:05:21.961Z,16.20
2023-02-07T01:07:52.860Z,16.30
2023-02-07T01:10:24.806Z,16.60
2023-02-07T01:12:56.149Z,17.20
2023-02-07T01:15:27.677Z,21.20
2023-02-07T01:17:58.534Z,16.30
2023-02-07T01:20:31.429Z,16.50
2023-02-07T01:23:02.538Z,17.10
2023-02-07T01:25:33.324Z,17.70
2023-02-07T01:28:04.329Z,12.20
2023-02-07T01:30:35.561Z,16.70
2023-02-07T01:33:06.421Z,14.50
2023-02-07T01:35:38.228Z,14.70
2023-02-07T01:38:09.225Z,16.20
2023-02-07T01:40:41.209Z,14.30
2023-02-07T01:43:18.530Z,14.10
2023-02-07T01:45:49.444Z,12.60
2023-02-07T01:48:24.589Z,12.80
2023-02-07T01:50:57.865Z,11.70
2023-02-07T01:53:31.048Z,16.40
2023-02-07T01:56:04.917Z,13.80
2023-02-07T01:58:37.137Z,19.20
2023-02-07T02:01:11.922Z,15.60
2023-02-07T02:03:48.263Z,15.90
2023-02-07T02:06:20.813Z,15.70
2023-02-07T02:08:54.155Z,17.30
2023-02-07T02:11:58.392Z,12.90
2023-02-07T02:14:46.870Z,15.50
2023-02-07T02:17:23.789Z,16.20
2023-02-07T02:20:25.968Z,12.00
2023-02-07T02:23:04.740Z,11.20
2023-02-07T02:26:12.287Z,12.00
2023-02-07T02:29:10.632Z,16.20
2023-02-07T02:32:08.118Z,13.90
2023-02-07T02:34:46.842Z,10.80
2023-02-07T02:37:24.929Z,15.10
2023-02-07T02:40:03.528Z,4.60
2023-02-07T02:42:41.260Z,6.70
2023-02-07T02:45:17.896Z,5.30
2023-02-07T02:47:51.933Z,13.90
2023-02-07T02:50:26.291Z,14.30
2023-02-07T02:52:57.045Z,17.00
2023-02-07T02:55:47.779Z,14.20
2023-02-07T02:58:27.505Z,15.50
2023-02-07T03:01:08.384Z,15.70
2023-02-07T03:03:56.022Z,13.30
2023-02-07T03:06:38.780Z,10.60
2023-02-07T03:09:25.646Z,12.80
2023-02-07T03:12:00.646Z,17.40
2023-02-07T03:14:37.962Z,14.20
2023-02-07T03:17:19.613Z,15.60
2023-02-07T03:19:56.404Z,16.10
2023-02-07T03:22:30.275Z,14.60
2023-02-07T03:25:05.074Z,13.80
2023-02-07T03:27:38.176Z,11.90
2023-02-07T03:30:13.918Z,16.20
2023-02-07T03:32:48.304Z,18.40
2023-02-07T03:35:25.271Z,12.80
2023-02-07T03:37:58.499Z,13.30
2023-02-07T03:40:32.008Z,13.30
2023-02-07T03:43:07.752Z,15.40
2023-02-07T03:45:38.810Z,16.30
2023-02-07T03:48:10.137Z,15.00
2023-02-07T03:50:41.118Z,19.80
2023-02-07T03:53:11.818Z,15.20
2023-02-07T03:55:42.634Z,20.30
2023-02-07T03:58:13.458Z,16.10
2023-02-07T04:00:44.405Z,18.00
2023-02-07T04:03:15.282Z,17.90
2023-02-07T04:05:47.305Z,13.50
2023-02-07T04:08:18.309Z,13.80
2023-02-07T04:11:00.084Z,11.30
2023-02-07T04:13:31.088Z,13.50
2023-02-07T04:16:02.055Z,16.20
2023-02-07T04:18:32.794Z,16.80
2023-02-07T04:21:08.531Z,12.50
2023-02-07T04:23:39.241Z,15.10
2023-02-07T04:26:10.045Z,15.60
2023-02-07T04:28:40.906Z,15.40
2023-02-07T04:31:11.709Z,16.90
2023-02-07T04:33:42.403Z,15.20
2023-02-07T04:36:13.282Z,15.50
2023-02-07T04:38:44.789Z,13.10
2023-02-07T04:41:15.673Z,16.80
2023-02-07T04:43:46.738Z,16.80
2023-02-07T04:46:17.521Z,18.00
2023-02-07T04:48:49.329Z,17.60
2023-02-07T04:51:19.992Z,19.60
2023-02-07T04:53:50.731Z,17.00
2023-02-07T04:56:21.570Z,14.80
2023-02-07T04:58:52.358Z,23.50
2023-02-07T05:01:23.109Z,19.40
2023-02-07T05:03:53.828Z,16.70
2023-02-07T05:06:24.577Z,13.20
2023-02-07T05:08:55.267Z,17.70
2023-02-07T05:11:26.090Z,16.00
2023-02-07T05:13:56.875Z,14.30
2023-02-07T05:16:27.717Z,15.90
2023-02-07T05:18:58.534Z,12.60
2023-02-07T05:21:29.330Z,20.20
2023-02-07T05:24:00.152Z,17.30
2023-02-07T05:26:30.886Z,20.10
2023-02-07T05:29:01.628Z,19.20
2023-02-07T05:31:46.483Z,18.30
2023-02-07T05:34:17.228Z,21.50
2023-02-07T05:36:47.958Z,10.30
2023-02-07T05:39:18.705Z,18.20
2023-02-07T05:41:49.462Z,14.80
2023-02-07T05:44:20.563Z,9.70
2023-02-07T05:46:52.707Z,14.50
2023-02-07T05:49:24.218Z,11.00
2023-02-07T05:51:54.963Z,7.60
2023-02-07T05:54:25.816Z,15.50
2023-02-07T05:56:56.606Z,14.30
2023-02-07T05:59:27.592Z,14.40
2023-02-07T06:01:58.346Z,15.10
2023-02-07T06:04:29.345Z,13.30
2023-02-07T06:07:00.013Z,18.80
2023-02-07T06:09:30.852Z,18.50
2023-02-07T06:12:03.129Z,15.10
2023-02-07T06:14:35.842Z,17.20
2023-02-07T06:17:06.599Z,13.10
2023-02-07T06:19:37.436Z,16.40
2023-02-07T06:22:08.335Z,14.00
2023-02-07T06:24:39.057Z,17.10
2023-02-07T06:27:09.918Z,13.40
2023-02-07T06:29:40.737Z,12.40
2023-02-07T06:32:11.459Z,16.50
2023-02-07T06:34:42.253Z,14.70
2023-02-07T06:37:13.376Z,18.30
2023-02-07T06:39:44.238Z,11.70
2023-02-07T06:42:14.993Z,5.80
2023-02-07T06:44:45.837Z,10.30
2023-02-07T06:47:16.613Z,11.20
2023-02-07T06:49:47.576Z,7.40
2023-02-07T06:52:19.748Z,8.50
2023-02-07T06:54:50.368Z,9.40
2023-02-07T06:57:20.981Z,17.40
2023-02-07T06:59:51.759Z,19.40
2023-02-07T07:02:22.726Z,16.20
2023-02-07T07:04:53.692Z,19.20
2023-02-07T07:07:24.766Z,15.30
2023-02-07T07:09:55.502Z,23.90
2023-02-07T07:12:26.372Z,23.00
2023-02-07T07:14:57.028Z,19.20
2023-02-07T07:17:27.882Z,27.00
2023-02-07T07:19:58.822Z,24.00
2023-02-07T07:22:30.176Z,25.40
2023-02-07T07:25:00.919Z,22.70
2023-02-07T07:27:31.683Z,13.00
2023-02-07T07:30:02.439Z,23.20
2023-02-07T07:32:35.015Z,21.00
2023-02-07T07:35:06.540Z,20.90
2023-02-07T07:37:37.247Z,19.90
2023-02-07T07:40:09.782Z,19.30
2023-02-07T07:42:40.557Z,26.00
2023-02-07T07:45:22.329Z,17.00
2023-02-07T07:47:53.123Z,17.00
2023-02-07T07:50:24.095Z,19.40
2023-02-07T07:52:54.892Z,20.10
2023-02-07T07:55:25.677Z,23.00
2023-02-07T07:57:57.127Z,16.00
2023-02-07T08:00:28.248Z,21.50
2023-02-07T08:02:59.003Z,19.50
2023-02-07T08:05:29.695Z,21.50
2023-02-07T08:08:01.647Z,21.20
2023-02-07T08:10:32.491Z,16.60
2023-02-07T08:13:03.234Z,23.60
2023-02-07T08:15:34.144Z,22.50
2023-02-07T08:18:05.091Z,24.60
2023-02-07T08:20:35.913Z,19.70
2023-02-07T08:23:06.777Z,23.60
2023-02-07T08:25:37.545Z,26.10
2023-02-07T08:28:08.356Z,20.60
2023-02-07T08:30:39.400Z,10.10
2023-02-07T08:33:11.015Z,28.50
2023-02-07T08:35:41.837Z,25.40
2023-02-07T08:38:12.619Z,23.70
2023-02-07T08:40:43.611Z,21.80
2023-02-07T08:43:15.532Z,23.60
2023-02-07T08:45:49.839Z,19.40
2023-02-07T08:48:21.013Z,22.90
2023-02-07T08:50:51.741Z,17.30
2023-02-07T08:53:22.453Z,24.20
2023-02-07T08:55:53.277Z,21.20
2023-02-07T08:58:24.178Z,20.40
2023-02-07T09:00:54.998Z,19.90
2023-02-07T09:03:25.826Z,19.50
2023-02-07T09:06:01.359Z,21.80
2023-02-07T09:08:32.338Z,20.60
2023-02-07T09:11:09.072Z,20.80
2023-02-07T09:13:40.272Z,19.40
2023-02-07T09:16:11.138Z,20.70
2023-02-07T09:18:41.898Z,16.70
2023-02-07T09:21:12.522Z,19.40
2023-02-07T09:23:43.674Z,20.90
2023-02-07T09:26:19.502Z,22.70
2023-02-07T09:28:50.203Z,20.70
2023-02-07T09:31:21.776Z,18.80
2023-02-07T09:33:52.941Z,23.20
2023-02-07T09:36:26.049Z,17.60
2023-02-07T09:38:57.815Z,21.70
2023-02-07T09:41:37.673Z,20.20
2023-02-07T09:44:15.464Z,20.60
2023-02-07T09:46:52.555Z,18.60
2023-02-07T09:49:38.371Z,20.90
2023-02-07T09:52:15.923Z,20.00
2023-02-07T09:54:50.589Z,15.90
2023-02-07T09:57:26.759Z,21.10
2023-02-07T10:00:02.737Z,19.80
2023-02-07T10:02:58.101Z,18.10
2023-02-07T10:05:35.798Z,20.80
2023-02-07T10:08:07.256Z,21.70
2023-02-07T10:10:45.376Z,18.80
2023-02-07T10:13:44.020Z,17.90
2023-02-07T10:16:30.857Z,23.50
2023-02-07T10:19:07.000Z,18.10
2023-02-07T10:21:46.863Z,16.80
2023-02-07T10:24:33.856Z,23.60
2023-02-07T10:27:10.929Z,23.90
2023-02-07T10:29:57.095Z,21.30
2023-02-07T10:32:34.636Z,23.20
2023-02-07T10:35:17.957Z,23.20
2023-02-07T10:37:52.286Z,22.90
2023-02-07T10:40:27.264Z,21.40
2023-02-07T10:43:03.336Z,23.50
2023-02-07T10:45:34.502Z,19.70
2023-02-07T10:48:10.868Z,22.80
2023-02-07T10:50:41.824Z,19.30
2023-02-07T10:53:12.812Z,21.60
2023-02-07T10:55:46.801Z,19.80
2023-02-07T10:58:24.114Z,20.60
2023-02-07T11:00:57.059Z,23.50
2023-02-07T11:03:28.243Z,22.30
2023-02-07T11:06:02.863Z,24.70
2023-02-07T11:08:36.044Z,19.30
2023-02-07T11:11:27.284Z,19.50
2023-02-07T11:16:35.129Z,23.80
2023-02-07T11:19:08.335Z,23.80
2023-02-07T11:21:44.703Z,23.30
2023-02-07T11:24:21.165Z,24.60
2023-02-07T11:26:57.554Z,23.90
2023-02-07T11:29:30.217Z,28.50
2023-02-07T11:32:03.535Z,24.20
2023-02-07T11:34:48.835Z,27.00
2023-02-07T11:37:28.943Z,25.50
2023-02-07T11:40:18.490Z,25.70
2023-02-07T11:42:51.093Z,17.50
2023-02-07T11:45:25.800Z,25.50
2023-02-07T11:48:00.129Z,25.20
2023-02-07T11:50:33.498Z,22.20
2023-02-07T11:53:04.718Z,26.30
2023-02-07T11:55:37.892Z,21.70
2023-02-07T11:58:19.502Z,23.20
2023-02-07T12:00:50.829Z,24.30
2023-02-07T12:03:26.171Z,20.20
2023-02-07T12:06:03.057Z,27.00
2023-02-07T12:08:36.643Z,23.80
2023-02-07T12:11:13.675Z,23.90
2023-02-07T12:13:50.350Z,23.40
2023-02-07T12:16:25.748Z,24.30
2023-02-07T12:19:04.740Z,26.50
2023-02-07T12:21:43.734Z,25.90
2023-02-07T12:24:21.010Z,24.00
2023-02-07T12:26:57.177Z,25.40
2023-02-07T12:29:39.701Z,25.40
2023-02-07T12:32:16.430Z,22.30
2023-02-07T12:34:53.669Z,21.60
2023-02-07T12:37:29.598Z,18.10
2023-02-07T12:40:11.446Z,22.20
2023-02-07T12:42:45.492Z,23.10
2023-02-07T12:45:24.276Z,25.90
2023-02-07T12:50:50.086Z,19.90
2023-02-07T12:53:38.188Z,20.00
2023-02-07T12:56:21.492Z,24.20
2023-02-07T12:59:00.854Z,24.30
2023-02-07T13:01:41.124Z,21.10
2023-02-07T13:04:38.852Z,25.70
2023-02-07T13:07:21.929Z,25.50
2023-02-07T13:10:02.126Z,25.80
2023-02-07T13:12:37.912Z,22.50
2023-02-07T13:15:17.929Z,18.30
2023-02-07T13:17:55.933Z,19.80
2023-02-07T13:20:42.361Z,21.60
2023-02-07T13:23:19.503Z,19.40
2023-02-07T13:25:53.221Z,23.30
2023-02-07T13:28:30.396Z,23.10
2023-02-07T13:31:02.818Z,24.40
2023-02-07T13:33:37.976Z,21.10
2023-02-07T13:36:14.523Z,24.50
2023-02-07T13:39:00.043Z,23.00
2023-02-07T13:41:36.166Z,24.60
2023-02-07T13:44:21.028Z,20.30
2023-02-07T13:47:15.572Z,22.70
2023-02-07T13:49:52.409Z,25.60
2023-02-07T13:52:30.999Z,26.60
2023-02-07T13:55:11.453Z,26.40
2023-02-07T13:58:02.311Z,26.90
2023-02-07T14:00:37.569Z,24.80
2023-02-07T14:03:20.641Z,29.00
2023-02-07T14:05:52.401Z,33.00
2023-02-07T14:08:26.434Z,22.10
2023-02-07T14:10:58.981Z,27.20
2023-02-07T14:13:35.215Z,24.10
2023-02-07T14:16:11.082Z,19.50
2023-02-07T14:18:48.133Z,25.60
2023-02-07T14:21:41.034Z,25.40
2023-02-07T14:24:33.317Z,22.50
2023-02-07T14:27:28.033Z,26.40
2023-02-07T14:30:20.206Z,29.50
2023-02-07T14:33:13.262Z,24.10
2023-02-07T14:36:22.504Z,23.20
2023-02-07T14:39:24.259Z,21.00
2023-02-07T14:41:55.473Z,24.20
2023-02-07T14:44:34.040Z,25.40
2023-02-07T14:47:06.902Z,27.30
2023-02-07T14:49:42.561Z,27.70
2023-02-07T14:52:16.422Z,20.20
2023-02-07T14:54:52.012Z,28.60
2023-02-07T14:57:34.164Z,28.30
2023-02-07T15:00:28.807Z,29.60
2023-02-07T15:03:03.019Z,25.30
2023-02-07T15:05:35.615Z,26.50
2023-02-07T15:08:17.500Z,25.40
2023-02-07T15:10:56.786Z,30.50
2023-02-07T15:13:31.182Z,25.80
2023-02-07T15:16:06.066Z,22.90
2023-02-07T15:18:41.076Z,26.40
2023-02-07T15:21:18.227Z,32.50
2023-02-07T15:23:54.440Z,29.40
2023-02-07T15:26:25.383Z,27.00
2023-02-07T15:29:02.087Z,26.20
2023-02-07T15:31:38.558Z,27.80
2023-02-07T15:34:16.693Z,23.50
2023-02-07T15:36:48.947Z,28.90
2023-02-07T15:39:23.070Z,27.80
2023-02-07T15:41:55.764Z,28.40
2023-02-07T15:44:30.533Z,27.20
2023-02-07T15:47:04.724Z,25.30
2023-02-07T15:49:39.728Z,26.10
2023-02-07T15:52:17.602Z,23.50
2023-02-07T15:54:51.093Z,21.50
2023-02-07T15:57:26.486Z,24.60
2023-02-07T16:00:02.597Z,25.90
2023-02-07T16:03:00.145Z,24.20
2023-02-07T16:05:34.066Z,24.40
2023-02-07T16:08:06.681Z,28.90
2023-02-07T16:10:40.043Z,24.70
2023-02-07T16:13:21.559Z,23.30
2023-02-07T16:16:00.285Z,24.60
2023-02-07T16:18:42.557Z,25.70
2023-02-07T16:21:18.622Z,25.20
2023-02-07T16:23:52.109Z,26.70
2023-02-07T16:26:27.742Z,23.80
2023-02-07T16:28:59.075Z,27.90
2023-02-07T16:31:30.158Z,23.90
2023-02-07T16:34:00.926Z,27.90
2023-02-07T16:36:32.198Z,26.30
2023-02-07T16:39:03.025Z,25.60
2023-02-07T16:41:36.341Z,27.10
2023-02-07T16:46:38.596Z,25.90
2023-02-07T16:49:15.660Z,28.30
2023-02-07T16:51:46.845Z,29.40
2023-02-07T16:54:18.026Z,31.30
2023-02-07T16:56:51.519Z,31.40
2023-02-07T16:59:23.546Z,31.20
2023-02-07T17:01:55.238Z,31.50
2023-02-07T17:04:25.915Z,36.10
2023-02-07T17:06:56.639Z,33.40
2023-02-07T17:09:28.565Z,34.20
2023-02-07T17:11:59.169Z,32.20
2023-02-07T17:14:29.835Z,31.90
2023-02-07T17:17:00.606Z,32.70
2023-02-07T17:19:31.455Z,31.90
2023-02-07T17:22:02.255Z,29.40
2023-02-07T17:24:32.916Z,32.90
2023-02-07T17:27:03.622Z,32.20
2023-02-07T17:29:34.356Z,32.50
2023-02-07T17:32:05.307Z,29.70
2023-02-07T17:34:36.210Z,34.20
2023-02-07T17:37:06.837Z,30.50
2023-02-07T17:39:37.553Z,27.70
2023-02-07T17:42:08.344Z,32.20
2023-02-07T17:44:40.391Z,32.10
2023-02-07T17:47:12.046Z,33.90
2023-02-07T17:49:42.786Z,28.60
2023-02-07T17:52:14.724Z,34.60
2023-02-07T17:54:46.094Z,33.40
2023-02-07T17:57:16.866Z,31.20
2023-02-07T17:59:47.496Z,29.20
2023-02-07T18:02:18.238Z,29.90
2023-02-07T18:04:51.532Z,26.60
2023-02-07T18:07:22.296Z,28.60
2023-02-07T18:09:52.998Z,34.30
2023-02-07T18:12:23.788Z,34.00
2023-02-07T18:14:56.531Z,31.60
2023-02-07T18:17:27.673Z,24.10
2023-02-07T18:19:58.299Z,27.30
2023-02-07T18:22:29.073Z,32.20
2023-02-07T18:25:00.087Z,29.10
2023-02-07T18:27:31.636Z,30.90
2023-02-07T18:30:02.394Z,23.40
2023-02-07T18:32:33.537Z,22.50
2023-02-07T18:35:05.846Z,23.50
2023-02-07T18:37:37.038Z,26.30
2023-02-07T18:40:10.309Z,32.50
2023-02-07T18:42:41.456Z,31.80
2023-02-07T18:45:14.504Z,28.40
2023-02-07T18:47:45.719Z,27.50
2023-02-07T18:50:19.526Z,30.90
2023-02-07T18:52:50.838Z,27.30
2023-02-07T18:55:21.567Z,18.40
2023-02-07T18:57:55.170Z,31.00
2023-02-07T19:00:27.554Z,33.80
2023-02-07T19:02:58.183Z,33.50
2023-02-07T19:05:28.977Z,30.60
2023-02-07T19:07:59.911Z,28.60
2023-02-07T19:10:30.755Z,31.10
2023-02-07T19:13:01.573Z,32.60
2023-02-07T19:15:32.333Z,33.40
2023-02-07T19:18:05.483Z,25.40
2023-02-07T19:20:36.132Z,30.50
2023-02-07T19:23:07.354Z,33.70
2023-02-07T19:25:38.394Z,35.30
2023-02-07T19:28:09.411Z,33.30
2023-02-07T19:30:43.631Z,31.10
2023-02-07T19:33:14.609Z,35.70
2023-02-07T19:35:45.368Z,31.50
2023-02-07T19:38:16.857Z,25.10
2023-02-07T19:40:55.524Z,34.50
2023-02-07T19:43:26.361Z,26.90
2023-02-07T19:45:57.057Z,24.80
2023-02-07T19:48:27.895Z,34.80
2023-02-07T19:51:03.209Z,29.30
2023-02-07T19:53:34.848Z,22.70
2023-02-07T19:56:09.532Z,34.10
2023-02-07T19:58:42.255Z,28.60
2023-02-07T20:01:13.642Z,33.50
2023-02-07T20:03:46.206Z,33.50
2023-02-07T20:06:17.329Z,36.40
2023-02-07T20:08:48.084Z,33.10
2023-02-07T20:11:21.008Z,35.60
2023-02-07T20:13:54.036Z,34.80
2023-02-07T20:16:27.590Z,34.10
2023-02-07T20:18:58.556Z,31.20
2023-02-07T20:21:33.553Z,35.40
2023-02-07T20:24:05.061Z,25.80
2023-02-07T20:26:39.006Z,34.70
2023-02-07T20:29:13.152Z,31.20
2023-02-07T20:31:45.096Z,37.10
2023-02-07T20:34:16.588Z,34.30
2023-02-07T20:36:47.685Z,13.80
2023-02-07T20:39:20.897Z,34.20
2023-02-07T20:41:52.472Z,23.90
2023-02-07T20:44:26.509Z,34.20
2023-02-07T20:46:59.561Z,27.30
2023-02-07T20:49:32.160Z,32.40
2023-02-07T20:52:03.342Z,30.30
2023-02-07T20:54:34.107Z,33.70
2023-02-07T20:57:04.942Z,25.60
2023-02-07T20:59:36.194Z,28.70
2023-02-07T21:02:07.213Z,26.80
2023-02-07T21:04:39.366Z,28.20
2023-02-07T21:07:11.122Z,32.70
2023-02-07T21:09:42.329Z,30.00
2023-02-07T21:12:13.231Z,30.80
2023-02-07T21:14:44.233Z,30.70
2023-02-07T21:17:15.408Z,36.90
2023-02-07T21:19:46.369Z,32.20
2023-02-07T21:22:17.206Z,39.00
2023-02-07T21:24:48.523Z,34.20
2023-02-07T21:27:19.291Z,32.80
2023-02-07T21:29:50.342Z,36.40
2023-02-07T21:32:21.184Z,38.40
2023-02-07T21:34:51.932Z,35.50
2023-02-07T21:37:24.583Z,31.30
2023-02-07T21:39:55.897Z,30.30
2023-02-07T21:42:26.732Z,31.20
2023-02-07T21:44:57.469Z,38.70
2023-02-07T21:47:29.494Z,32.50
2023-02-07T21:50:00.263Z,27.90
2023-02-07T21:52:31.873Z,15.00
2023-02-07T21:55:02.760Z,27.80
2023-02-07T21:57:33.423Z,28.60
2023-02-07T22:00:04.534Z,31.90
2023-02-07T22:02:55.101Z,34.70
2023-02-07T22:05:26.090Z,31.80
2023-02-07T22:07:56.866Z,32.90
2023-02-07T22:10:27.604Z,29.50
2023-02-07T22:12:59.754Z,31.10
2023-02-07T22:15:31.676Z,28.50
2023-02-07T22:18:03.413Z,21.80
2023-02-07T22:20:34.630Z,25.90
2023-02-07T22:23:05.399Z,26.40
2023-02-07T22:25:39.585Z,30.90
2023-02-07T22:28:10.932Z,18.90
2023-02-07T22:30:43.090Z,24.90
2023-02-07T22:33:14.024Z,22.60
2023-02-07T22:35:45.647Z,26.20
2023-02-07T22:38:17.311Z,11.60
2023-02-07T22:40:47.957Z,21.20
2023-02-07T22:43:19.380Z,29.30
2023-02-07T22:45:50.197Z,28.80
2023-02-07T22:48:21.253Z,27.50
2023-02-07T22:50:52.030Z,24.50
2023-02-07T22:53:22.676Z,33.50
2023-02-07T22:55:53.325Z,34.40
2023-02-07T22:58:24.194Z,34.70
2023-02-07T23:00:54.929Z,22.00
2023-02-07T23:03:25.615Z,30.80
2023-02-07T23:05:56.289Z,33.40
2023-02-07T23:08:27.173Z,21.50
2023-02-07T23:10:57.979Z,30.20
2023-02-07T23:13:28.969Z,30.70
2023-02-07T23:15:59.766Z,32.20
2023-02-07T23:18:30.560Z,27.90
2023-02-07T23:21:01.243Z,28.60
2023-02-07T23:23:31.943Z,29.80
2023-02-07T23:26:02.780Z,29.90
2023-02-07T23:28:33.574Z,36.70
2023-02-07T23:31:04.468Z,32.40
2023-02-07T23:33:36.002Z,33.50
2023-02-07T23:36:08.477Z,38.60
2023-02-07T23:38:39.527Z,34.20
2023-02-07T23:41:10.352Z,23.20
2023-02-07T23:43:41.624Z,32.10
2023-02-07T23:46:13.700Z,27.60
2023-02-07T23:48:44.567Z,24.00
2023-02-07T23:51:16.186Z,32.40
2023-02-07T23:53:47.071Z,34.20
2023-02-07T23:56:21.190Z,36.50
2023-02-07T23:58:53.018Z,34.80
